Time;durP1;ratioP1;P1;durP2;ratioP2;P2;SDS_P1;SDS_P2;PMS_P1;PMS_P2;Temp;Humidity;BMP_temperature;BMP_pressure;BME280_temperature;BME280_humidity;BME280_pressure;Samples;Min_cycle;Max_cycle;Signal;HPM_P1;HPM_P2
2021/09/02 00:01:15;;;;;;;7.97;5.15;;;;;;;11.92;100.00;95575.31;5009918;28;20444;-60
2021/09/02 00:03:43;;;;;;;7.30;5.05;;;;;;;11.86;100.00;95574.47;4993750;28;20042;-60
2021/09/02 00:06:08;;;;;;;6.68;5.03;;;;;;;11.79;100.00;95579.28;4994348;28;20033;-60
2021/09/02 00:08:36;;;;;;;6.95;5.15;;;;;;;11.75;100.00;95582.72;4994511;28;20429;-61
2021/09/02 00:11:13;;;;;;;9.75;5.15;;;;;;;11.64;100.00;95589.88;4994675;28;20113;-61
2021/09/02 00:13:41;;;;;;;7.53;4.80;;;;;;;11.60;100.00;95605.69;5009568;28;20027;-60
2021/09/02 00:16:07;;;;;;;8.20;5.22;;;;;;;11.59;100.00;95597.88;4980929;28;20023;-60
2021/09/02 00:18:36;;;;;;;6.13;4.85;;;;;;;11.55;100.00;95608.34;4994403;28;20477;-61
2021/09/02 00:21:02;;;;;;;8.05;4.95;;;;;;;11.48;100.00;95614.97;4994368;28;20030;-61
2021/09/02 00:23:30;;;;;;;6.47;4.80;;;;;;;11.44;100.00;95620.06;4991067;28;20684;-60
2021/09/02 00:25:56;;;;;;;7.03;5.25;;;;;;;11.41;100.00;95630.50;4993921;28;20393;-60
2021/09/02 00:28:32;;;;;;;7.80;5.53;;;;;;;11.32;100.00;95630.16;4994537;28;20022;-60
2021/09/02 00:31:00;;;;;;;6.85;4.95;;;;;;;11.20;100.00;95648.28;4977030;28;20022;-61
2021/09/02 00:33:25;;;;;;;7.82;4.93;;;;;;;11.05;100.00;95643.59;4994235;28;20085;-61
2021/09/02 00:35:53;;;;;;;6.38;4.90;;;;;;;10.88;100.00;95653.63;4993909;28;20109;-61
2021/09/02 00:38:19;;;;;;;7.25;4.70;;;;;;;10.72;100.00;95658.00;5009392;28;20029;-61
2021/09/02 00:40:44;;;;;;;7.80;4.93;;;;;;;10.55;100.00;95671.47;4994152;28;20022;-61
2021/09/02 00:43:12;;;;;;;5.82;4.28;;;;;;;10.40;100.00;95669.41;4993932;28;20030;-60
2021/09/02 00:45:38;;;;;;;7.72;5.10;;;;;;;10.32;100.00;95672.53;4993669;28;20088;-60
2021/09/02 00:48:03;;;;;;;6.78;5.00;;;;;;;10.26;100.00;95686.91;4993974;28;20023;-61
2021/09/02 00:50:30;;;;;;;6.35;5.00;;;;;;;10.13;100.00;95688.03;4978006;28;20023;-59
2021/09/02 00:52:57;;;;;;;6.78;5.28;;;;;;;10.05;100.00;95698.34;4984045;28;20032;-61
2021/09/02 00:55:23;;;;;;;11.40;5.68;;;;;;;9.92;100.00;95706.75;4992219;28;20030;-61
2021/09/02 00:57:51;;;;;;;6.15;5.10;;;;;;;9.82;100.00;95718.91;4993135;28;20041;-59
2021/09/02 01:00:17;;;;;;;7.00;5.03;;;;;;;9.75;100.00;95728.13;4993734;28;20026;-59
2021/09/02 01:02:48;;;;;;;7.00;4.85;;;;;;;9.71;100.00;95735.03;4993558;28;20477;-60
2021/09/02 01:05:21;;;;;;;5.68;4.88;;;;;;;9.68;100.00;95748.91;5018390;23;20132;-52
2021/09/02 01:07:58;;;;;;;6.38;4.57;;;;;;;9.66;100.00;95756.34;5004080;28;20037;-53
2021/09/02 01:10:24;;;;;;;6.72;4.95;;;;;;;9.64;100.00;95767.28;4995259;28;20117;-52
2021/09/02 01:12:51;;;;;;;9.70;4.82;;;;;;;9.66;100.00;95773.22;4994168;28;20088;-51
2021/09/02 01:15:16;;;;;;;9.07;5.90;;;;;;;9.71;100.00;95778.66;4983069;28;20031;-56
2021/09/02 01:17:57;;;;;;;8.18;5.35;;;;;;;9.77;100.00;95774.22;4974696;28;20037;-52
2021/09/02 01:20:26;;;;;;;8.07;5.40;;;;;;;9.82;100.00;95776.94;4974791;28;20520;-52
2021/09/02 01:22:57;;;;;;;8.13;5.28;;;;;;;9.82;100.00;95783.13;4976437;28;20027;-51
2021/09/02 01:25:25;;;;;;;6.13;4.65;;;;;;;9.77;100.00;95785.72;4976399;28;20026;-52
2021/09/02 01:28:07;;;;;;;8.52;5.38;;;;;;;9.68;100.00;95784.50;4993724;28;20025;-53
2021/09/02 01:30:40;;;;;;;7.82;5.20;;;;;;;9.61;100.00;95791.84;4993757;28;20040;-53
2021/09/02 01:33:07;;;;;;;8.38;5.18;;;;;;;9.51;100.00;95789.00;4993918;28;20031;-52
2021/09/02 01:35:33;;;;;;;9.52;5.90;;;;;;;9.46;100.00;95787.06;4993615;28;20054;-55
2021/09/02 01:38:01;;;;;;;9.90;5.70;;;;;;;9.46;100.00;95781.72;4993603;28;20033;-51
2021/09/02 01:40:37;;;;;;;9.27;6.50;;;;;;;9.50;100.00;95790.84;4985804;28;20061;-51
2021/09/02 01:43:12;;;;;;;9.52;5.78;;;;;;;9.45;100.00;95782.75;4974155;28;20035;-52
2021/09/02 01:45:41;;;;;;;8.55;5.35;;;;;;;9.35;100.00;95784.44;4973032;28;20480;-51
2021/09/02 01:48:13;;;;;;;7.32;4.75;;;;;;;9.31;100.00;95786.75;4974065;28;20371;-52
2021/09/02 01:50:41;;;;;;;9.63;5.70;;;;;;;9.30;100.00;95785.13;4972801;28;20497;-52
2021/09/02 01:53:10;;;;;;;8.13;5.40;;;;;;;9.33;100.00;95778.50;4974069;28;20456;-55
2021/09/02 01:55:36;;;;;;;9.15;5.88;;;;;;;9.40;100.00;95779.97;4973828;28;20031;-51
2021/09/02 01:58:07;;;;;;;10.73;5.88;;;;;;;9.45;100.00;95785.44;4956481;28;20042;-54
2021/09/02 02:00:35;;;;;;;8.85;5.97;;;;;;;9.47;100.00;95780.66;4973951;28;20026;-51
2021/09/02 02:03:00;;;;;;;10.05;6.00;;;;;;;9.43;100.00;95782.16;4972567;28;20034;-54
2021/09/02 02:05:26;;;;;;;9.63;6.05;;;;;;;9.42;100.00;95788.56;4953019;29;20051;-53
2021/09/02 02:07:51;;;;;;;10.25;5.75;;;;;;;9.36;100.00;95784.19;4967449;28;20038;-52
2021/09/02 02:10:20;;;;;;;9.82;5.70;;;;;;;9.30;100.00;95785.13;4953206;29;20027;-52
2021/09/02 02:12:48;;;;;;;8.82;6.32;;;;;;;9.25;100.00;95785.06;4955232;28;20031;-55
2021/09/02 02:15:20;;;;;;;9.18;5.70;;;;;;;9.15;100.00;95785.69;4973698;28;20026;-52
2021/09/02 02:17:47;;;;;;;8.53;5.37;;;;;;;9.06;100.00;95789.78;4972531;28;20168;-51
2021/09/02 02:20:13;;;;;;;9.05;5.40;;;;;;;8.93;100.00;95793.53;4972353;28;20096;-52
2021/09/02 02:22:45;;;;;;;8.13;5.30;;;;;;;8.86;100.00;95784.84;4972320;28;20026;-51
2021/09/02 02:25:15;;;;;;;8.13;5.70;;;;;;;8.80;100.00;95784.97;4972268;28;20505;-52
2021/09/02 02:27:41;;;;;;;7.93;5.18;;;;;;;8.75;100.00;95787.53;4973309;28;20038;-52
2021/09/02 02:30:14;;;;;;;11.88;5.82;;;;;;;8.64;100.00;95787.31;4973879;28;20142;-52
2021/09/02 02:32:39;;;;;;;10.73;5.35;;;;;;;8.60;100.00;95791.53;4972349;28;20122;-52
2021/09/02 02:35:05;;;;;;;8.98;5.90;;;;;;;8.68;100.00;95790.31;4972472;28;20118;-53
2021/09/02 02:37:31;;;;;;;8.80;5.28;;;;;;;8.70;100.00;95785.59;4971881;28;20400;-52
2021/09/02 02:39:56;;;;;;;8.00;5.68;;;;;;;8.70;100.00;95781.06;4970309;28;20086;-53
2021/09/02 02:42:22;;;;;;;11.15;5.75;;;;;;;8.74;100.00;95785.91;4954047;28;20034;-54
2021/09/02 02:44:47;;;;;;;9.80;5.70;;;;;;;8.73;100.00;95771.75;4953957;28;20533;-52
2021/09/02 02:47:12;;;;;;;9.32;5.78;;;;;;;8.69;100.00;95771.41;4954150;28;20031;-52
2021/09/02 02:49:39;;;;;;;9.55;6.20;;;;;;;8.66;100.00;95771.06;4952638;28;20038;-52
2021/09/02 02:52:05;;;;;;;9.23;5.30;;;;;;;8.58;100.00;95766.91;4954256;28;20067;-53
2021/09/02 02:54:37;;;;;;;10.57;6.20;;;;;;;8.52;100.00;95764.38;4953929;29;20034;-51
2021/09/02 02:57:03;;;;;;;9.50;6.03;;;;;;;8.47;100.00;95765.09;4954272;28;20034;-51
2021/09/02 02:59:37;;;;;;;11.85;6.60;;;;;;;8.40;100.00;95769.72;4954044;28;20516;-51
2021/09/02 03:02:23;;;;;;;7.90;5.57;;;;;;;8.31;100.00;95768.41;4954039;29;20494;-52
2021/09/02 03:04:48;;;;;;;8.80;5.82;;;;;;;8.21;100.00;95765.53;4955293;28;20090;-52
2021/09/02 03:07:14;;;;;;;9.73;6.20;;;;;;;-144.43;100.00;64487.81;4984100;28;20037;-51
2021/09/02 03:09:39;;;;;;;8.70;6.07;;;;;;;-144.43;100.00;64487.81;4974983;28;20022;-52
2021/09/02 03:12:08;;;;;;;7.63;5.28;;;;;;;-144.43;100.00;64487.81;4991205;28;20415;-53
2021/09/02 03:14:40;;;;;;;11.02;6.95;;;;;;;-144.43;100.00;64487.81;4992945;28;20028;-53
2021/09/02 03:17:05;;;;;;;9.43;5.85;;;;;;;-144.43;100.00;64487.81;4993913;28;20026;-52
2021/09/02 03:19:30;;;;;;;8.35;5.80;;;;;;;-144.43;100.00;64487.81;4974908;28;20034;-56
2021/09/02 03:21:59;;;;;;;8.48;5.50;;;;;;;-144.43;100.00;64487.81;4992390;28;20389;-55
2021/09/02 03:24:24;;;;;;;8.35;5.50;;;;;;;-144.43;100.00;64487.81;4992166;28;20022;-53
2021/09/02 03:26:50;;;;;;;8.00;5.65;;;;;;;-144.43;100.00;64487.81;4992400;28;20036;-56
2021/09/02 03:29:18;;;;;;;8.07;5.85;;;;;;;-144.43;100.00;64487.81;4992421;28;20073;-53
2021/09/02 03:31:50;;;;;;;6.97;5.25;;;;;;;-144.43;100.00;64487.81;4992387;28;20023;-55
2021/09/02 03:34:18;;;;;;;9.57;5.97;;;;;;;-144.43;100.00;64487.81;4992194;28;20034;-57
2021/09/02 03:36:46;;;;;;;11.27;6.45;;;;;;;8.12;100.00;95706.34;4992346;28;20105;-56
2021/09/02 03:39:12;;;;;;;7.55;5.63;;;;;;;8.22;100.00;95719.09;4994125;28;20031;-54
2021/09/02 03:41:37;;;;;;;9.80;6.45;;;;;;;8.14;100.00;95713.09;4995827;28;20058;-56
2021/09/02 03:44:05;;;;;;;9.05;6.63;;;;;;;8.12;100.00;95704.50;4994604;28;20069;-51
2021/09/02 03:46:33;;;;;;;12.77;7.32;;;;;;;8.10;100.00;95711.94;4995788;28;20026;-54
2021/09/02 03:49:03;;;;;;;9.07;6.60;;;;;;;8.07;100.00;95714.25;4978198;28;20029;-53
2021/09/02 03:51:28;;;;;;;8.98;5.97;;;;;;;8.03;100.00;95716.59;4995649;28;20030;-53
2021/09/02 03:53:56;;;;;;;7.90;6.00;;;;;;;7.98;100.00;95721.00;4995607;28;20022;-53
2021/09/02 03:56:22;;;;;;;10.63;6.10;;;;;;;7.92;100.00;95724.56;4995615;28;20032;-51
2021/09/02 03:58:47;;;;;;;10.57;6.63;;;;;;;7.99;100.00;95714.59;4978043;28;20027;-53
2021/09/02 04:01:16;;;;;;;11.07;6.75;;;;;;;8.04;100.00;95717.41;4978111;28;20038;-51
2021/09/02 04:03:43;;;;;;;11.55;6.68;;;;;;;8.12;100.00;95704.50;4977905;28;20033;-51
2021/09/02 04:06:16;;;;;;;8.63;6.22;;;;;;;8.17;100.00;95705.66;4994955;28;20050;-52
2021/09/02 04:08:47;;;;;;;9.27;6.13;;;;;;;8.25;100.00;95705.28;4995626;28;20026;-54
2021/09/02 04:11:13;;;;;;;9.27;6.63;;;;;;;8.26;100.00;95702.41;4995410;28;20034;-52
2021/09/02 04:13:39;;;;;;;8.98;6.53;;;;;;;8.21;100.00;95693.47;4977892;28;20093;-56
2021/09/02 04:16:10;;;;;;;9.65;6.75;;;;;;;8.23;100.00;95683.38;4995673;28;20113;-57
2021/09/02 04:18:42;;;;;;;9.52;6.68;;;;;;;8.24;100.00;95685.00;4994980;28;20389;-54
2021/09/02 04:21:08;;;;;;;12.80;6.65;;;;;;;8.25;100.00;95689.28;4995164;28;20063;-52
2021/09/02 04:23:36;;;;;;;10.95;7.60;;;;;;;8.27;100.00;95680.00;4994105;28;20026;-58
2021/09/02 04:26:04;;;;;;;13.00;7.25;;;;;;;8.29;100.00;95675.25;4995063;28;20030;-58
2021/09/02 04:28:30;;;;;;;12.57;7.55;;;;;;;8.38;100.00;95676.53;4994971;28;20117;-56
2021/09/02 04:30:55;;;;;;;10.95;6.90;;;;;;;8.42;100.00;95674.19;4977563;28;20113;-59
2021/09/02 04:33:24;;;;;;;11.88;7.65;;;;;;;8.50;100.00;95670.34;4995228;28;20034;-55
2021/09/02 04:35:52;;;;;;;10.50;7.88;;;;;;;8.54;100.00;95660.81;4994872;28;20065;-56
2021/09/02 04:38:21;;;;;;;12.52;7.72;;;;;;;8.54;100.00;95660.81;4994913;28;20033;-57
2021/09/02 04:40:50;;;;;;;11.25;7.55;;;;;;;8.52;100.00;95661.03;4994840;28;20054;-55
2021/09/02 04:43:16;;;;;;;16.27;7.55;;;;;;;8.52;100.00;95666.38;4994840;28;20112;-53
2021/09/02 04:45:47;;;;;;;13.02;7.38;;;;;;;8.55;100.00;95668.56;4994850;28;20493;-58
2021/09/02 04:48:22;;;;;;;11.13;7.60;;;;;;;8.63;100.00;95672.72;4993641;28;20190;-56
2021/09/02 04:50:51;;;;;;;9.65;6.72;;;;;;;8.74;100.00;95676.41;4994508;28;20030;-57
2021/09/02 04:53:18;;;;;;;14.40;7.93;;;;;;;8.85;100.00;95671.00;4977247;28;20022;-57
2021/09/02 04:55:44;;;;;;;9.95;6.78;;;;;;;8.88;100.00;95670.53;4994459;28;20181;-52
2021/09/02 04:58:11;;;;;;;15.05;7.90;;;;;;;8.94;100.00;95682.13;4993210;28;20055;-53
2021/09/02 05:00:42;;;;;;;9.60;7.00;;;;;;;8.98;100.00;95688.59;4976948;28;20034;-54
2021/09/02 05:03:16;;;;;;;10.27;7.53;;;;;;;8.97;100.00;95684.31;4976881;28;20030;-56
2021/09/02 05:05:44;;;;;;;12.15;7.15;;;;;;;8.97;100.00;95682.44;4976568;28;20052;-54
2021/09/02 05:08:16;;;;;;;9.55;7.13;;;;;;;8.99;100.00;95691.03;4993119;28;20027;-53
2021/09/02 05:10:42;;;;;;;9.85;7.38;;;;;;;9.09;100.00;95692.28;4994179;28;20034;-53
2021/09/02 05:13:10;;;;;;;11.90;7.45;;;;;;;9.23;100.00;95699.75;4994570;28;20037;-53
2021/09/02 05:15:36;;;;;;;11.85;7.47;;;;;;;9.30;100.00;95699.59;4994006;28;20443;-53
2021/09/02 05:18:06;;;;;;;11.35;7.18;;;;;;;9.42;100.00;95689.63;4994168;28;20029;-59
2021/09/02 05:20:34;;;;;;;11.07;7.22;;;;;;;9.51;100.00;95696.22;4976699;28;20488;-58
2021/09/02 05:23:00;;;;;;;11.25;7.53;;;;;;;9.62;100.00;95694.50;4976837;28;20465;-53
2021/09/02 05:25:25;;;;;;;9.93;7.30;;;;;;;9.73;100.00;95690.13;4993955;28;20034;-58
2021/09/02 05:27:53;;;;;;;10.10;7.13;;;;;;;9.85;100.00;95691.66;4974161;28;20026;-56
2021/09/02 05:30:19;;;;;;;13.40;7.60;;;;;;;-144.43;100.00;64487.81;4992491;28;20030;-57
2021/09/02 05:32:45;;;;;;;12.60;7.57;;;;;;;-144.43;100.00;64487.81;4993935;28;20473;-56
2021/09/02 05:35:14;;;;;;;9.98;7.38;;;;;;;-144.43;100.00;64487.81;4993528;28;20057;-57
2021/09/02 05:37:40;;;;;;;12.38;8.27;;;;;;;-144.43;100.00;64487.81;4976317;28;20047;-56
2021/09/02 05:40:17;;;;;;;11.60;7.82;;;;;;;-144.43;100.00;64487.81;4993796;28;20034;-55
2021/09/02 05:42:42;;;;;;;10.68;7.90;;;;;;;-144.43;100.00;64487.81;4992578;28;20437;-57
2021/09/02 05:45:08;;;;;;;10.35;7.93;;;;;;;-144.43;100.00;64487.81;4993428;28;20033;-56
2021/09/02 05:47:34;;;;;;;11.05;8.63;;;;;;;-144.43;100.00;64487.81;4993589;28;20027;-55
2021/09/02 05:50:03;;;;;;;11.98;8.65;;;;;;;-144.43;100.00;64487.81;4993671;28;20026;-55
2021/09/02 05:52:28;;;;;;;14.55;8.93;;;;;;;-144.43;100.00;64487.81;4975969;28;20034;-54
2021/09/02 05:54:54;;;;;;;14.30;9.05;;;;;;;-144.43;100.00;64487.81;4993528;28;20092;-52
2021/09/02 05:57:23;;;;;;;12.35;8.57;;;;;;;-144.43;100.00;64487.81;4993490;28;20022;-54
2021/09/02 05:59:49;;;;;;;13.18;8.80;;;;;;;-144.43;100.00;64487.81;4993492;28;20026;-52
2021/09/02 06:02:16;;;;;;;12.05;8.07;;;;;;;-144.43;100.00;64487.81;4992590;28;20136;-53
2021/09/02 06:04:42;;;;;;;10.90;7.72;;;;;;;-144.43;100.00;64487.81;4975562;28;20022;-56
2021/09/02 06:07:11;;;;;;;12.27;7.85;;;;;;;-144.43;100.00;64487.81;4993305;28;20030;-53
2021/09/02 06:09:38;;;;;;;10.90;7.30;;;;;;;-144.43;100.00;64487.81;4990665;28;20014;-57
2021/09/02 06:12:06;;;;;;;9.90;7.18;;;;;;;-144.43;100.00;64487.81;4962497;28;20086;-54
2021/09/02 06:14:34;;;;;;;8.93;6.80;;;;;;;-144.43;100.00;64487.81;4974864;28;20061;-58
2021/09/02 06:16:59;;;;;;;11.35;6.70;;;;;;;-144.43;100.00;64487.81;4990727;28;20030;-57
2021/09/02 06:19:28;;;;;;;9.60;6.80;;;;;;;-144.43;100.00;64487.81;4991681;28;20033;-58
2021/09/02 06:21:53;;;;;;;11.75;7.38;;;;;;;-144.43;100.00;64487.81;4992190;28;20026;-58
2021/09/02 06:24:23;;;;;;;10.13;7.65;;;;;;;-144.43;100.00;64487.81;4992203;28;20025;-58
2021/09/02 06:26:55;;;;;;;11.23;7.25;;;;;;;-144.43;100.00;64487.81;4991903;28;20056;-59
2021/09/02 06:29:26;;;;;;;9.20;6.85;;;;;;;-144.43;100.00;64487.81;4991881;28;20061;-58
2021/09/02 06:31:55;;;;;;;10.82;7.20;;;;;;;-144.43;100.00;64487.81;4992156;28;20452;-58
2021/09/02 06:34:23;;;;;;;12.10;7.03;;;;;;;-144.43;100.00;64487.81;4992132;28;20041;-58
2021/09/02 06:36:49;;;;;;;7.68;6.05;;;;;;;-144.43;100.00;64487.81;4974721;28;20026;-54
2021/09/02 06:39:23;;;;;;;9.10;6.80;;;;;;;-144.43;100.00;64487.81;4991595;28;20023;-59
2021/09/02 06:41:48;;;;;;;9.82;6.93;;;;;;;-144.43;100.00;64487.81;4974387;28;20481;-58
2021/09/02 06:44:14;;;;;;;10.45;6.88;;;;;;;-144.43;100.00;64487.81;4991911;28;20018;-59
2021/09/02 06:46:46;;;;;;;9.88;6.93;;;;;;;-144.43;100.00;64487.81;4990888;28;20027;-59
2021/09/02 06:49:11;;;;;;;9.48;6.78;;;;;;;-144.43;100.00;64487.81;4991512;28;20106;-58
2021/09/02 06:51:39;;;;;;;10.20;6.93;;;;;;;-144.43;100.00;64487.81;4992049;28;20027;-59
2021/09/02 06:54:08;;;;;;;14.60;6.97;;;;;;;-144.43;100.00;64487.81;4992051;28;20037;-55
2021/09/02 06:56:36;;;;;;;11.80;6.85;;;;;;;-144.43;100.00;64487.81;4990851;28;20026;-54
2021/09/02 06:59:07;;;;;;;8.80;6.70;;;;;;;-144.43;100.00;64487.81;4991518;28;20104;-53
2021/09/02 07:01:34;;;;;;;14.70;7.00;;;;;;;-144.43;100.00;64487.81;4956571;28;20081;-55
2021/09/02 07:04:00;;;;;;;9.27;6.75;;;;;;;-144.43;100.00;64487.81;4974470;28;20030;-55
2021/09/02 07:06:25;;;;;;;8.95;6.93;;;;;;;-144.43;100.00;64487.81;4993039;28;20417;-59
2021/09/02 07:08:50;;;;;;;10.13;7.03;;;;;;;-144.43;100.00;64487.81;4991987;28;20482;-60
2021/09/02 07:11:21;;;;;;;9.25;6.65;;;;;;;-144.43;100.00;64487.81;4992831;28;20022;-60
2021/09/02 07:13:46;;;;;;;12.27;6.78;;;;;;;-144.43;100.00;64487.81;4993370;28;20031;-61
2021/09/02 07:16:12;;;;;;;9.52;6.80;;;;;;;-144.43;100.00;64487.81;4995782;28;20033;-60
2021/09/02 07:18:44;;;;;;;10.15;6.88;;;;;;;-144.43;100.00;64487.81;4995126;28;20030;-60
2021/09/02 07:21:09;;;;;;;10.55;6.78;;;;;;;-144.43;100.00;64487.81;4996952;28;20030;-61
2021/09/02 07:23:35;;;;;;;9.57;7.03;;;;;;;-144.43;100.00;64487.81;4996435;28;20069;-60
2021/09/02 07:26:00;;;;;;;9.40;6.70;;;;;;;-144.43;100.00;64487.81;4978253;28;20026;-61
2021/09/02 07:28:26;;;;;;;9.88;6.60;;;;;;;-144.43;100.00;64487.81;4996022;28;20076;-57
2021/09/02 07:30:51;;;;;;;9.85;6.75;;;;;;;-144.43;100.00;64487.81;4996075;28;20062;-57
2021/09/02 07:33:20;;;;;;;9.70;7.38;;;;;;;-144.43;100.00;64487.81;4996513;28;20041;-59
2021/09/02 07:35:51;;;;;;;10.05;7.53;;;;;;;-144.43;100.00;64487.81;4996086;28;20026;-59
2021/09/02 07:38:26;;;;;;;8.90;6.55;;;;;;;-144.43;100.00;64487.81;4995629;28;20113;-57
2021/09/02 07:40:53;;;;;;;9.52;6.85;;;;;;;-144.43;100.00;64487.81;4996282;28;20117;-60
2021/09/02 07:43:19;;;;;;;9.10;6.47;;;;;;;-144.43;100.00;64487.81;4970415;28;20462;-59
2021/09/02 07:45:47;;;;;;;8.57;6.55;;;;;;;-144.43;100.00;64487.81;4959652;28;20081;-60
2021/09/02 07:48:12;;;;;;;8.57;6.15;;;;;;;-144.43;100.00;64487.81;4958477;28;20027;-56
2021/09/02 07:50:38;;;;;;;9.13;6.97;;;;;;;-144.43;100.00;64487.81;4976494;28;20498;-59
2021/09/02 07:53:12;;;;;;;8.20;6.22;;;;;;;-144.43;100.00;64487.81;4958860;28;20482;-60
2021/09/02 07:55:41;;;;;;;8.35;6.13;;;;;;;-144.43;100.00;64487.81;4976757;28;20397;-61
2021/09/02 07:58:09;;;;;;;10.98;6.97;;;;;;;-144.43;100.00;64487.81;4974821;28;20027;-61
2021/09/02 08:00:41;;;;;;;10.10;6.53;;;;;;;-144.43;100.00;64487.81;4984019;28;20022;-61
2021/09/02 08:03:24;;;;;;;8.85;6.82;;;;;;;-144.43;100.00;64487.81;4996868;28;20034;-61
2021/09/02 08:05:53;;;;;;;10.40;6.60;;;;;;;-144.43;100.00;64487.81;4995277;28;20054;-61
2021/09/02 08:08:19;;;;;;;9.00;6.53;;;;;;;-144.43;100.00;64487.81;4996103;28;20042;-61
2021/09/02 08:10:53;;;;;;;9.10;6.38;;;;;;;-144.43;100.00;64487.81;4996133;28;20087;-59
2021/09/02 08:13:27;;;;;;;8.45;6.60;;;;;;;-144.43;100.00;64487.81;4978756;28;20389;-57
2021/09/02 08:15:53;;;;;;;8.25;6.82;;;;;;;-144.43;100.00;64487.81;4978354;28;20022;-59
2021/09/02 08:18:18;;;;;;;7.20;6.20;;;;;;;-144.43;100.00;64487.81;4996239;28;20619;-61
2021/09/02 08:20:47;;;;;;;6.82;6.10;;;;;;;-144.43;100.00;64487.81;4997367;28;20046;-61
2021/09/02 08:23:12;;;;;;;8.15;6.38;;;;;;;-144.43;100.00;64487.81;4997227;28;20036;-61
2021/09/02 08:25:40;;;;;;;8.10;6.82;;;;;;;-144.43;100.00;64487.81;4997106;28;20026;-61
2021/09/02 08:28:10;;;;;;;18.13;6.57;;;;;;;-144.43;100.00;64487.81;4996592;28;20022;-61
2021/09/02 08:30:36;;;;;;;7.43;6.57;;;;;;;-144.43;100.00;64487.81;4996618;28;20025;-61
2021/09/02 08:33:04;;;;;;;8.60;6.10;;;;;;;-144.43;100.00;64487.81;4996747;28;20038;-61
2021/09/02 08:35:34;;;;;;;7.65;5.95;;;;;;;-144.43;100.00;64487.81;4979807;28;20064;-61
2021/09/02 08:38:03;;;;;;;6.82;5.82;;;;;;;-144.43;100.00;64487.81;4979083;28;20113;-61
2021/09/02 08:40:34;;;;;;;9.48;6.60;;;;;;;-144.43;100.00;64487.81;4997217;28;20045;-61
2021/09/02 08:43:00;;;;;;;8.15;6.28;;;;;;;-144.43;100.00;64487.81;4979649;28;20075;-61
2021/09/02 08:45:32;;;;;;;8.98;6.25;;;;;;;-144.43;100.00;64487.81;4996967;28;20485;-61
2021/09/02 08:48:00;;;;;;;8.10;6.53;;;;;;;-144.43;100.00;64487.81;4996443;28;20037;-61
2021/09/02 08:50:27;;;;;;;10.45;6.90;;;;;;;-144.43;100.00;64487.81;4996927;28;20034;-61
2021/09/02 08:52:53;;;;;;;10.85;6.43;;;;;;;-144.43;100.00;64487.81;4979496;28;20033;-61
2021/09/02 08:55:20;;;;;;;12.00;7.15;;;;;;;-144.43;100.00;64487.81;4979415;28;20022;-61
2021/09/02 08:57:50;;;;;;;7.32;6.43;;;;;;;-144.43;100.00;64487.81;4996259;28;20026;-61
2021/09/02 09:00:16;;;;;;;8.20;6.07;;;;;;;-144.43;100.00;64487.81;4979447;28;20062;-61
2021/09/02 09:02:43;;;;;;;8.98;6.57;;;;;;;-144.43;100.00;64487.81;4996438;28;20084;-61
2021/09/02 09:05:18;;;;;;;10.63;7.45;;;;;;;-144.43;100.00;64487.81;4975594;28;20407;-61
2021/09/02 09:07:53;;;;;;;8.30;6.57;;;;;;;-144.43;100.00;64487.81;4975649;28;20779;-61
2021/09/02 09:10:29;;;;;;;9.80;6.90;;;;;;;-144.43;100.00;64487.81;4976339;28;20109;-61
2021/09/02 09:13:00;;;;;;;7.93;6.38;;;;;;;-144.43;100.00;64487.81;4976909;28;20030;-61
2021/09/02 09:15:34;;;;;;;7.35;6.45;;;;;;;-144.43;100.00;64487.81;4976896;28;20618;-61
2021/09/02 09:18:25;;;;;;;9.80;7.28;;;;;;;-144.43;100.00;64487.81;4974518;28;20054;-60
2021/09/02 09:21:07;;;;;;;9.02;6.88;;;;;;;-144.43;100.00;64487.81;4976812;28;20031;-61
2021/09/02 09:24:02;;;;;;;8.02;6.72;;;;;;;-144.43;100.00;64487.81;4974637;28;20109;-61
2021/09/02 09:26:28;;;;;;;8.23;6.50;;;;;;;-144.43;100.00;64487.81;4976215;28;20093;-61
2021/09/02 09:29:00;;;;;;;8.20;6.57;;;;;;;-144.43;100.00;64487.81;4974740;28;20450;-61
2021/09/02 09:31:34;;;;;;;7.50;6.22;;;;;;;-144.43;100.00;64487.81;4975115;28;20027;-61
2021/09/02 09:34:04;;;;;;;11.25;6.30;;;;;;;-144.43;100.00;64487.81;4975984;28;20030;-61
2021/09/02 09:36:39;;;;;;;9.60;6.78;;;;;;;-144.43;100.00;64487.81;4957675;28;20030;-61
2021/09/02 09:39:13;;;;;;;7.60;6.50;;;;;;;-144.43;100.00;64487.81;4975282;28;20086;-61
2021/09/02 09:41:46;;;;;;;7.80;5.82;;;;;;;-144.43;100.00;64487.81;4972463;28;20077;-60
2021/09/02 09:44:26;;;;;;;8.23;6.47;;;;;;;-144.43;100.00;64487.81;4978865;28;20037;-61
2021/09/02 09:47:15;;;;;;;6.55;5.70;;;;;;;-144.43;100.00;64487.81;4969944;28;20027;-60
2021/09/02 09:49:41;;;;;;;8.45;6.55;;;;;;;-144.43;100.00;64487.81;4964157;28;20027;-61
2021/09/02 09:52:25;;;;;;;7.65;6.18;;;;;;;-144.43;100.00;64487.81;4960801;28;20382;-61
2021/09/02 09:54:51;;;;;;;9.63;7.47;;;;;;;-144.43;100.00;64487.81;4968131;28;20029;-61
2021/09/02 09:57:25;;;;;;;8.35;6.20;;;;;;;20.66;100.00;95815.78;4971432;28;20031;-61
2021/09/02 09:59:53;;;;;;;9.18;6.38;;;;;;;20.67;100.00;95823.63;4957325;28;20051;-61
2021/09/02 10:02:24;;;;;;;8.20;6.25;;;;;;;21.01;100.00;95805.88;4968448;28;20037;-61
2021/09/02 10:04:54;;;;;;;7.05;6.20;;;;;;;21.20;100.00;95838.34;4970012;28;20046;-62
2021/09/02 10:07:21;;;;;;;9.02;6.68;;;;;;;21.23;100.00;95848.59;4979585;28;20148;-61
2021/09/02 10:09:50;;;;;;;7.40;6.13;;;;;;;21.06;100.00;95839.25;4967815;28;20025;-61
2021/09/02 10:12:16;;;;;;;8.07;6.15;;;;;;;21.37;100.00;95824.81;4983752;28;20535;-61
2021/09/02 10:14:45;;;;;;;8.75;6.22;;;;;;;20.93;100.00;95810.16;4974040;28;20018;-61
2021/09/02 10:17:14;;;;;;;9.07;6.43;;;;;;;20.78;100.00;95814.09;4970417;28;20572;-61
2021/09/02 10:19:40;;;;;;;6.32;5.72;;;;;;;21.10;100.00;95785.75;4976395;28;20030;-60
2021/09/02 10:22:07;;;;;;;7.63;6.55;;;;;;;21.47;100.00;95829.16;4965900;28;20041;-60
2021/09/02 10:24:42;;;;;;;8.85;6.50;;;;;;;21.47;100.00;95838.16;4967498;28;20489;-61
2021/09/02 10:27:16;;;;;;;8.13;6.70;;;;;;;21.64;100.00;95831.97;4971840;28;20026;-61
2021/09/02 10:29:45;;;;;;;8.20;6.50;;;;;;;21.66;100.00;95835.97;4992042;28;20033;-61
2021/09/02 10:32:23;;;;;;;8.27;6.60;;;;;;;21.58;100.00;95842.19;4992426;28;20042;-61
2021/09/02 10:35:07;;;;;;;9.27;6.60;;;;;;;21.67;100.00;95823.94;4992708;28;20061;-61
2021/09/02 10:37:43;;;;;;;8.05;6.00;;;;;;;21.95;100.00;95802.66;4990691;28;20041;-61
2021/09/02 10:40:21;;;;;;;7.30;6.43;;;;;;;21.68;100.00;95808.38;4992203;28;20497;-61
2021/09/02 10:42:52;;;;;;;9.25;7.22;;;;;;;21.54;100.00;95811.25;4992418;28;20046;-61
2021/09/02 10:45:47;;;;;;;7.97;6.53;;;;;;;21.40;100.00;95805.91;4992158;28;20030;-60
2021/09/02 10:48:17;;;;;;;10.05;7.20;;;;;;;21.65;100.00;95793.47;4990923;28;20042;-61
2021/09/02 10:50:44;;;;;;;9.57;6.88;;;;;;;21.88;100.00;95809.69;4992230;28;20460;-61
2021/09/02 10:53:26;;;;;;;9.20;6.68;;;;;;;21.80;100.00;95815.94;4991932;28;20026;-61
2021/09/02 10:55:57;;;;;;;8.18;6.38;;;;;;;22.06;100.00;95800.44;4990967;28;20018;-61
2021/09/02 10:58:40;;;;;;;8.77;6.55;;;;;;;22.25;100.00;95838.31;4991628;28;20442;-61
2021/09/02 11:01:21;;;;;;;9.20;6.75;;;;;;;22.07;100.00;95844.91;4990683;28;20026;-61
2021/09/02 11:03:56;;;;;;;9.88;6.93;;;;;;;22.32;100.00;95851.50;4992041;28;20030;-61
2021/09/02 11:06:46;;;;;;;7.22;6.25;;;;;;;22.44;100.00;95849.72;4991748;28;20501;-61
2021/09/02 11:09:29;;;;;;;11.18;6.75;;;;;;;22.22;100.00;95844.44;4991384;28;20122;-61
2021/09/02 11:11:54;;;;;;;;;;;;;;;22.14;100.00;95864.31;4992267;28;20022;-61
2021/09/02 11:14:23;;;;;;;9.55;6.85;;;;;;;22.46;100.00;95854.84;4992133;28;19909;-61
2021/09/02 11:16:49;;;;;;;7.20;6.15;;;;;;;22.76;100.00;95831.22;4992144;28;20146;-59
2021/09/02 11:19:34;;;;;;;8.85;6.40;;;;;;;23.06;100.00;95852.09;4992040;28;20030;-59
2021/09/02 11:22:14;;;;;;;8.52;5.97;;;;;;;23.37;100.00;95876.44;4991944;28;20026;-61
2021/09/02 11:24:51;;;;;;;6.65;6.00;;;;;;;23.08;100.00;95882.63;4992270;28;20026;-61
2021/09/02 11:27:34;;;;;;;6.63;5.93;;;;;;;22.91;100.00;95899.06;4973182;28;20038;-60
2021/09/02 11:30:25;;;;;;;7.28;5.45;;;;;;;23.05;100.00;95890.66;4992371;28;20037;-61